Wetterdaten: Woche 22.03.21 - 28.03.21 (KW12)
Datum Zeit Temp. Aussen Temp. o. S. Temp +5cm Feuchte Auss Luftdruck Regen Sonnenschein Regendauer Solar Windben Empfang
22.03.2021 00:00 4,9 C 4,4 C 2,3 C 84 % 1024,6 hPa 0,0 l/m 0,00 h 0,00 h 0 W/m 11,9 km/h (2 Bft) 96,75 %
22.03.2021 01:00 4,7 C 4,1 C 2,0 C 86 % 1024,5 hPa 0,0 l/m 0,00 h 0,00 h 0 W/m 5,2 km/h (1 Bft) 98,70 %
22.03.2021 02:00 4,1 C 3,3 C 1,3 C 88 % 1024,2 hPa 0,0 l/m 0,00 h 0,00 h 0 W/m 7,5 km/h (2 Bft) 97,51 %
22.03.2021 03:00 3,5 C 3,0 C 1,1 C 91 % 1024,0 hPa 0,0 l/m 0,00 h 0,00 h 0 W/m 9,2 km/h (2 Bft) 97,94 %
22.03.2021 04:00 3,3 C 2,5 C 0,8 C 93 % 1024,0 hPa 0,0 l/m 0,00 h 0,00 h 0 W/m 9,3 km/h (2 Bft) 96,25 %
22.03.2021 05:00 3,0 C 2,5 C 0,9 C 94 % 1024,0 hPa 0,0 l/m 0,00 h 0,00 h 0 W/m 7,3 km/h (2 Bft) 93,55 %
22.03.2021 06:00 3,3 C 2,8 C 1,1 C 96 % 1024,2 hPa 0,0 l/m 0,00 h 0,00 h 8 W/m 7,3 km/h (2 Bft) 98,95 %
22.03.2021 07:00 3,3 C 3,2 C 1,6 C 96 % 1024,4 hPa 0,0 l/m 0,00 h 0,00 h 40 W/m 8,9 km/h (2 Bft) 98,87 %
22.03.2021 08:00 4,2 C 4,9 C 2,9 C 96 % 1024,7 hPa 0,0 l/m 0,33 h 0,00 h 146 W/m 15,2 km/h (3 Bft) 96,80 %
22.03.2021 09:00 6,5 C 10,0 C 7,6 C 88 % 1025,0 hPa 0,0 l/m 0,80 h 0,00 h 325 W/m 18,5 km/h (3 Bft) 98,36 %
22.03.2021 10:00 7,8 C 10,2 C 8,6 C 81 % 1025,1 hPa 0,0 l/m 0,43 h 0,00 h 308 W/m 18,5 km/h (3 Bft) 97,15 %
22.03.2021 11:00 7,4 C 7,6 C 5,4 C 79 % 1025,3 hPa 0,0 l/m 0,00 h 0,00 h 161 W/m 19,5 km/h (3 Bft) 97,94 %
22.03.2021 12:00 7,8 C 8,6 C 6,4 C 80 % 1025,5 hPa 0,0 l/m 0,23 h 0,00 h 256 W/m 14,8 km/h (3 Bft) 96,17 %
22.03.2021 13:00 7,9 C 7,9 C 5,9 C 80 % 1025,7 hPa 0,0 l/m 0,00 h 0,00 h 158 W/m 12,1 km/h (2 Bft) 96,86 %
22.03.2021 14:00 7,6 C 7,5 C 5,3 C 79 % 1025,5 hPa 0,0 l/m 0,00 h 0,00 h 125 W/m 13,1 km/h (3 Bft) 96,02 %
22.03.2021 15:00 8,0 C 8,2 C 6,0 C 78 % 1025,3 hPa 0,0 l/m 0,00 h 0,00 h 151 W/m 11,5 km/h (2 Bft) 98,93 %
22.03.2021 16:00 7,9 C 7,8 C 5,4 C 77 % 1025,2 hPa 0,0 l/m 0,00 h 0,00 h 80 W/m 10,2 km/h (2 Bft) 96,60 %
22.03.2021 17:00 7,9 C 7,5 C 5,1 C 77 % 1025,3 hPa 0,0 l/m 0,00 h 0,00 h 57 W/m 8,4 km/h (2 Bft) 98,19 %
22.03.2021 18:00 7,5 C 6,9 C 4,6 C 77 % 1025,5 hPa 0,0 l/m 0,00 h 0,00 h 16 W/m 5,0 km/h (1 Bft) 97,46 %
22.03.2021 19:00 7,2 C 6,3 C 3,9 C 79 % 1026,0 hPa 0,0 l/m 0,00 h 0,00 h 0 W/m 0,5 km/h (0 Bft) 96,04 %
22.03.2021 20:00 6,9 C 6,1 C 3,9 C 80 % 1026,3 hPa 0,0 l/m 0,00 h 0,00 h 0 W/m 0,2 km/h (0 Bft) 99,86 %
22.03.2021 21:00 6,6 C 6,1 C 3,7 C 81 % 1026,4 hPa 0,0 l/m 0,00 h 0,00 h 0 W/m 1,3 km/h (1 Bft) 96,23 %
22.03.2021 22:00 6,4 C 5,7 C 3,4 C 83 % 1026,4 hPa 0,0 l/m 0,00 h 0,00 h 0 W/m 0,5 km/h (0 Bft) 95,86 %
22.03.2021 23:00 6,3 C 5,6 C 3,4 C 84 % 1026,4 hPa 0,0 l/m 0,00 h 0,00 h 0 W/m 0,2 km/h (0 Bft) 96,30 %
23.03.2021 00:00 6,0 C 5,1 C 2,9 C 84 % 1026,4 hPa 0,0 l/m 0,00 h 0,00 h 0 W/m 1,3 km/h (1 Bft) 93,64 %
23.03.2021 01:00 5,0 C 3,2 C 1,1 C 85 % 1026,4 hPa 0,0 l/m 0,00 h 0,00 h 0 W/m 0,0 km/h (0 Bft) 96,18 %
23.03.2021 02:00 4,3 C 3,7 C 1,8 C 89 % 1026,3 hPa 0,0 l/m 0,00 h 0,00 h 0 W/m 1,2 km/h (1 Bft) 96,82 %
23.03.2021 03:00 4,7 C 4,4 C 2,8 C 90 % 1026,2 hPa 0,0 l/m 0,00 h 0,00 h 0 W/m 1,2 km/h (1 Bft) 96,22 %
23.03.2021 04:00 5,0 C 4,4 C 2,8 C 88 % 1026,0 hPa 0,0 l/m 0,00 h 0,00 h 0 W/m 2,2 km/h (1 Bft) 90,59 %
23.03.2021 05:00 5,1 C 4,6 C 2,8 C 87 % 1026,0 hPa 0,0 l/m 0,00 h 0,00 h 0 W/m 1,9 km/h (1 Bft) 95,50 %
23.03.2021 06:00 5,5 C 5,0 C 3,4 C 85 % 1025,9 hPa 0,0 l/m 0,00 h 0,00 h 8 W/m 4,2 km/h (1 Bft) 96,13 %
23.03.2021 07:00 5,8 C 5,4 C 3,6 C 84 % 1026,0 hPa 0,0 l/m 0,00 h 0,00 h 39 W/m 7,9 km/h (2 Bft) 97,87 %
23.03.2021 08:00 6,5 C 6,4 C 4,4 C 83 % 1026,4 hPa 0,0 l/m 0,00 h 0,00 h 95 W/m 11,6 km/h (2 Bft) 96,97 %
23.03.2021 09:00 7,5 C 8,2 C 6,2 C 81 % 1026,4 hPa 0,0 l/m 0,27 h 0,00 h 206 W/m 12,8 km/h (3 Bft) 96,17 %
23.03.2021 10:00 9,1 C 11,3 C 9,3 C 78 % 1026,5 hPa 0,0 l/m 1,00 h 0,00 h 344 W/m 10,5 km/h (2 Bft) 97,94 %
23.03.2021 11:00 10,9 C 14,7 C 14,6 C 73 % 1026,2 hPa 0,0 l/m 1,00 h 0,00 h 524 W/m 13,7 km/h (3 Bft) 99,57 %
23.03.2021 12:00 12,7 C 16,3 C 13,6 C 69 % 1025,7 hPa 0,0 l/m 0,97 h 0,00 h 572 W/m 12,6 km/h (3 Bft) 97,32 %
23.03.2021 13:00 12,4 C 13,4 C 10,6 C 69 % 1025,5 hPa 0,0 l/m 0,33 h 0,00 h 289 W/m 12,6 km/h (3 Bft) 98,58 %
23.03.2021 14:00 12,5 C 13,2 C 10,3 C 69 % 1025,2 hPa 0,0 l/m 0,20 h 0,00 h 252 W/m 9,7 km/h (2 Bft) 98,94 %
23.03.2021 15:00 12,9 C 14,8 C 10,6 C 67 % 1024,9 hPa 0,0 l/m 0,67 h 0,00 h 286 W/m 10,7 km/h (2 Bft) 92,77 %
23.03.2021 16:00 13,0 C 14,7 C 10,2 C 66 % 1024,6 hPa 0,0 l/m 0,50 h 0,00 h 196 W/m 7,2 km/h (2 Bft) 99,57 %
23.03.2021 17:00 13,0 C 13,4 C 9,4 C 65 % 1024,4 hPa 0,0 l/m 0,53 h 0,00 h 101 W/m 6,5 km/h (2 Bft) 99,20 %
23.03.2021 18:00 12,1 C 11,0 C 8,3 C 68 % 1024,5 hPa 0,0 l/m 0,20 h 0,00 h 26 W/m 6,2 km/h (2 Bft) 94,34 %
23.03.2021 19:00 10,4 C 8,9 C 6,6 C 74 % 1024,7 hPa 0,0 l/m 0,00 h 0,00 h 0 W/m 5,7 km/h (1 Bft) 99,30 %
23.03.2021 20:00 9,0 C 7,9 C 5,7 C 78 % 1024,9 hPa 0,0 l/m 0,00 h 0,00 h 0 W/m 8,3 km/h (2 Bft) 98,04 %
23.03.2021 21:00 8,2 C 7,0 C 4,7 C 81 % 1024,9 hPa 0,0 l/m 0,00 h 0,00 h 0 W/m 4,7 km/h (1 Bft) 97,15 %
23.03.2021 22:00 7,4 C 6,1 C 3,9 C 82 % 1024,8 hPa 0,0 l/m 0,00 h 0,00 h 0 W/m 3,2 km/h (1 Bft) 97,65 %
23.03.2021 23:00 6,5 C 5,3 C 3,2 C 84 % 1024,6 hPa 0,0 l/m 0,00 h 0,00 h 0 W/m 2,3 km/h (1 Bft) 96,91 %
24.03.2021 00:00 5,3 C 3,3 C 1,4 C 86 % 1024,5 hPa 0,0 l/m 0,00 h 0,00 h 0 W/m 0,7 km/h (0 Bft) 96,33 %
24.03.2021 01:00 3,9 C 2,4 C 0,7 C 88 % 1024,4 hPa 0,0 l/m 0,00 h 0,00 h 0 W/m 0,0 km/h (0 Bft) 98,15 %
24.03.2021 02:00 3,1 C 2,1 C 0,5 C 90 % 1024,2 hPa 0,0 l/m 0,00 h 0,00 h 0 W/m 0,3 km/h (0 Bft) 98,16 %
24.03.2021 03:00 3,1 C 2,8 C 1,1 C 93 % 1024,1 hPa 0,0 l/m 0,00 h 0,00 h 0 W/m 6,6 km/h (2 Bft) 99,86 %
24.03.2021 04:00 3,0 C 2,2 C 0,9 C 93 % 1024,0 hPa 0,0 l/m 0,00 h 0,00 h 0 W/m 7,0 km/h (2 Bft) 95,01 %
24.03.2021 05:00 2,6 C 2,0 C 0,6 C 94 % 1024,0 hPa 0,0 l/m 0,00 h 0,00 h 0 W/m 8,2 km/h (2 Bft) 98,72 %
24.03.2021 06:00 2,3 C 1,7 C 0,6 C 94 % 1024,1 hPa 0,0 l/m 0,00 h 0,00 h 12 W/m 5,9 km/h (2 Bft) 92,90 %
24.03.2021 07:00 2,4 C 2,4 C 1,0 C 94 % 1024,1 hPa 0,0 l/m 0,00 h 0,00 h 44 W/m 8,6 km/h (2 Bft) 92,43 %
24.03.2021 08:00 3,9 C 5,0 C 3,0 C 94 % 1024,2 hPa 0,0 l/m 0,50 h 0,00 h 177 W/m 10,3 km/h (2 Bft) 97,65 %
24.03.2021 09:00 7,6 C 11,4 C 9,5 C 86 % 1024,1 hPa 0,0 l/m 0,93 h 0,00 h 322 W/m 13,3 km/h (3 Bft) 97,01 %
24.03.2021 10:00 10,8 C 13,8 C 14,6 C 76 % 1023,8 hPa 0,0 l/m 1,00 h 0,00 h 512 W/m 15,4 km/h (3 Bft) 95,36 %
24.03.2021 11:00 13,6 C 18,4 C 20,8 C 67 % 1023,4 hPa 0,0 l/m 1,00 h 0,00 h 654 W/m 16,5 km/h (3 Bft) 95,66 %
24.03.2021 12:00 15,4 C 20,1 C 16,7 C 60 % 1023,0 hPa 0,0 l/m 1,00 h 0,00 h 692 W/m 17,6 km/h (3 Bft) 96,54 %
24.03.2021 13:00 16,3 C 22,0 C 13,8 C 56 % 1022,4 hPa 0,0 l/m 1,00 h 0,00 h 683 W/m 19,5 km/h (3 Bft) 97,86 %
24.03.2021 14:00 16,6 C 22,1 C 13,6 C 56 % 1021,6 hPa 0,0 l/m 1,00 h 0,00 h 629 W/m 21,5 km/h (4 Bft) 97,87 %
24.03.2021 15:00 16,8 C 22,1 C 13,7 C 55 % 1021,2 hPa 0,0 l/m 1,00 h 0,00 h 483 W/m 18,1 km/h (3 Bft) 97,72 %
24.03.2021 16:00 16,3 C 19,5 C 12,9 C 56 % 1020,8 hPa 0,0 l/m 0,80 h 0,00 h 292 W/m 15,3 km/h (3 Bft) 96,49 %
24.03.2021 17:00 15,8 C 17,2 C 12,3 C 58 % 1020,5 hPa 0,0 l/m 0,90 h 0,00 h 151 W/m 10,9 km/h (2 Bft) 97,88 %
24.03.2021 18:00 14,5 C 13,0 C 10,0 C 62 % 1020,5 hPa 0,0 l/m 0,00 h 0,00 h 20 W/m 2,5 km/h (1 Bft) 97,50 %
24.03.2021 19:00 12,6 C 9,8 C 6,6 C 69 % 1020,6 hPa 0,0 l/m 0,00 h 0,00 h 0 W/m 0,0 km/h (0 Bft) 98,37 %
24.03.2021 20:00 10,3 C 8,0 C 5,1 C 76 % 1020,7 hPa 0,0 l/m 0,00 h 0,00 h 0 W/m 0,0 km/h (0 Bft) 97,22 %
24.03.2021 21:00 8,8 C 7,0 C 4,2 C 79 % 1020,8 hPa 0,0 l/m 0,00 h 0,00 h 0 W/m 0,0 km/h (0 Bft) 95,78 %
24.03.2021 22:00 7,8 C 6,3 C 3,6 C 81 % 1020,9 hPa 0,0 l/m 0,00 h 0,00 h 0 W/m 0,2 km/h (0 Bft) 96,02 %
24.03.2021 23:00 6,8 C 5,4 C 2,8 C 83 % 1020,9 hPa 0,0 l/m 0,00 h 0,00 h 0 W/m 0,0 km/h (0 Bft) 99,36 %
25.03.2021 00:00 5,9 C 4,4 C 2,3 C 85 % 1020,7 hPa 0,0 l/m 0,00 h 0,00 h 0 W/m 0,4 km/h (0 Bft) 98,15 %
25.03.2021 01:00 5,2 C 4,1 C 1,9 C 87 % 1020,5 hPa 0,0 l/m 0,00 h 0,00 h 0 W/m 0,2 km/h (0 Bft) 97,44 %
25.03.2021 02:00 4,8 C 4,2 C 2,1 C 89 % 1020,0 hPa 0,0 l/m 0,00 h 0,00 h 0 W/m 0,0 km/h (0 Bft) 97,56 %
25.03.2021 03:00 4,9 C 4,6 C 2,7 C 91 % 1019,7 hPa 0,0 l/m 0,00 h 0,00 h 0 W/m 1,6 km/h (1 Bft) 95,34 %
25.03.2021 04:00 5,3 C 4,9 C 3,2 C 92 % 1019,6 hPa 0,0 l/m 0,00 h 0,00 h 0 W/m 0,2 km/h (0 Bft) 97,86 %
25.03.2021 05:00 5,4 C 4,8 C 3,0 C 92 % 1019,7 hPa 0,0 l/m 0,00 h 0,00 h 0 W/m 0,1 km/h (0 Bft) 95,59 %
25.03.2021 06:00 5,5 C 5,1 C 3,4 C 93 % 1020,0 hPa 0,0 l/m 0,00 h 0,00 h 10 W/m 1,7 km/h (1 Bft) 98,68 %
25.03.2021 07:00 6,1 C 6,2 C 4,4 C 93 % 1020,4 hPa 0,0 l/m 0,17 h 0,00 h 64 W/m 2,1 km/h (1 Bft) 98,29 %
25.03.2021 08:00 7,4 C 8,3 C 6,4 C 92 % 1020,6 hPa 0,0 l/m 0,27 h 0,00 h 124 W/m 1,3 km/h (1 Bft) 96,69 %
25.03.2021 09:00 8,9 C 9,9 C 8,0 C 88 % 1020,9 hPa 0,0 l/m 0,17 h 0,00 h 199 W/m 4,8 km/h (1 Bft) 97,57 %
25.03.2021 10:00 10,7 C 13,4 C 13,0 C 84 % 1021,1 hPa 0,0 l/m 1,00 h 0,00 h 398 W/m 8,1 km/h (2 Bft) 97,31 %
25.03.2021 11:00 12,7 C 17,6 C 18,7 C 77 % 1021,0 hPa 0,0 l/m 1,00 h 0,00 h 579 W/m 10,2 km/h (2 Bft) 98,00 %
25.03.2021 12:00 14,5 C 19,9 C 16,1 C 71 % 1020,7 hPa 0,0 l/m 1,00 h 0,00 h 706 W/m 13,7 km/h (3 Bft) 97,68 %
25.03.2021 13:00 15,8 C 21,4 C 13,5 C 65 % 1020,3 hPa 0,0 l/m 0,93 h 0,00 h 656 W/m 15,1 km/h (3 Bft) 94,01 %
25.03.2021 14:00 14,3 C 14,1 C 11,6 C 70 % 1020,1 hPa 0,0 l/m 0,00 h 0,00 h 149 W/m 13,6 km/h (3 Bft) 98,75 %
25.03.2021 15:00 13,3 C 12,8 C 10,2 C 74 % 1020,3 hPa 0,0 l/m 0,00 h 0,00 h 55 W/m 11,6 km/h (2 Bft) 98,86 %
25.03.2021 16:00 12,5 C 11,9 C 9,6 C 78 % 1020,4 hPa 0,0 l/m 0,00 h 0,00 h 43 W/m 7,5 km/h (2 Bft) 93,29 %
25.03.2021 17:00 12,2 C 11,7 C 9,4 C 80 % 1020,4 hPa 0,0 l/m 0,00 h 0,00 h 44 W/m 7,1 km/h (2 Bft) 98,87 %
25.03.2021 18:00 11,7 C 11,0 C 8,7 C 81 % 1020,3 hPa 0,0 l/m 0,00 h 0,00 h 19 W/m 7,1 km/h (2 Bft) 99,67 %
25.03.2021 19:00 11,3 C 10,6 C 8,3 C 83 % 1020,6 hPa 0,0 l/m 0,00 h 0,00 h 0 W/m 5,7 km/h (1 Bft) 95,49 %
25.03.2021 20:00 10,7 C 9,9 C 7,6 C 84 % 1020,8 hPa 0,0 l/m 0,00 h 0,00 h 0 W/m 5,6 km/h (1 Bft) 97,44 %
25.03.2021 21:00 9,8 C 8,7 C 6,6 C 86 % 1020,9 hPa 0,0 l/m 0,00 h 0,00 h 0 W/m 4,7 km/h (1 Bft) 98,79 %
25.03.2021 22:00 9,1 C 7,9 C 6,1 C 88 % 1020,9 hPa 0,0 l/m 0,00 h 0,00 h 0 W/m 3,9 km/h (1 Bft) 96,26 %
25.03.2021 23:00 8,7 C 7,8 C 5,9 C 90 % 1020,7 hPa 0,0 l/m 0,00 h 0,00 h 0 W/m 6,0 km/h (2 Bft) 97,87 %
26.03.2021 00:00 8,4 C 7,3 C 5,6 C 90 % 1020,6 hPa 0,0 l/m 0,00 h 0,00 h 0 W/m 6,8 km/h (2 Bft) 93,88 %
26.03.2021 01:00 8,0 C 7,0 C 5,4 C 91 % 1020,4 hPa 0,0 l/m 0,00 h 0,00 h 0 W/m 9,7 km/h (2 Bft) 95,93 %
26.03.2021 02:00 7,3 C 6,2 C 4,7 C 92 % 1020,0 hPa 0,0 l/m 0,00 h 0,00 h 0 W/m 4,5 km/h (1 Bft) 97,35 %
26.03.2021 03:00 6,8 C 6,0 C 4,5 C 93 % 1019,5 hPa 0,0 l/m 0,00 h 0,00 h 0 W/m 5,4 km/h (1 Bft) 97,35 %
26.03.2021 04:00 6,3 C 5,4 C 3,9 C 94 % 1019,3 hPa 0,0 l/m 0,00 h 0,00 h 0 W/m 4,1 km/h (1 Bft) 97,97 %
26.03.2021 05:00 5,8 C 4,8 C 3,7 C 94 % 1019,1 hPa 0,0 l/m 0,00 h 0,00 h 0 W/m 8,9 km/h (2 Bft) 97,58 %
26.03.2021 06:00 5,1 C 4,4 C 3,2 C 95 % 1018,9 hPa 0,0 l/m 0,00 h 0,00 h 12 W/m 13,1 km/h (3 Bft) 97,57 %
26.03.2021 07:00 5,2 C 5,1 C 3,8 C 96 % 1018,9 hPa 0,0 l/m 0,00 h 0,00 h 39 W/m 13,6 km/h (3 Bft) 94,94 %
26.03.2021 08:00 7,1 C 8,1 C 6,1 C 96 % 1018,7 hPa 0,0 l/m 0,57 h 0,00 h 200 W/m 14,5 km/h (3 Bft) 97,23 %
26.03.2021 09:00 10,9 C 14,3 C 12,9 C 83 % 1018,6 hPa 0,0 l/m 0,97 h 0,00 h 349 W/m 17,6 km/h (3 Bft) 99,07 %
26.03.2021 10:00 13,1 C 15,2 C 15,7 C 72 % 1018,5 hPa 0,0 l/m 0,97 h 0,00 h 526 W/m 24,7 km/h (4 Bft) 97,80 %
26.03.2021 11:00 13,7 C 15,4 C 14,9 C 66 % 1017,8 hPa 0,0 l/m 0,43 h 0,00 h 377 W/m 24,6 km/h (4 Bft) 95,29 %
26.03.2021 12:00 14,9 C 17,2 C 14,7 C 61 % 1017,0 hPa 0,0 l/m 0,47 h 0,00 h 520 W/m 24,7 km/h (4 Bft) 96,64 %
26.03.2021 13:00 16,0 C 19,9 C 13,7 C 58 % 1016,2 hPa 0,0 l/m 0,93 h 0,00 h 672 W/m 25,2 km/h (4 Bft) 98,36 %
26.03.2021 14:00 16,8 C 21,3 C 13,7 C 56 % 1015,3 hPa 0,0 l/m 0,93 h 0,00 h 637 W/m 25,9 km/h (4 Bft) 98,00 %
26.03.2021 15:00 16,4 C 19,4 C 13,3 C 55 % 1014,6 hPa 0,0 l/m 0,63 h 0,00 h 387 W/m 26,3 km/h (4 Bft) 97,44 %
26.03.2021 16:00 15,6 C 16,9 C 12,3 C 57 % 1014,2 hPa 0,0 l/m 0,33 h 0,00 h 181 W/m 24,5 km/h (4 Bft) 97,72 %
26.03.2021 17:00 15,1 C 16,0 C 11,9 C 58 % 1013,8 hPa 0,0 l/m 0,63 h 0,00 h 139 W/m 22,4 km/h (4 Bft) 97,22 %
26.03.2021 18:00 14,2 C 13,4 C 10,6 C 60 % 1013,8 hPa 0,0 l/m 0,60 h 0,00 h 34 W/m 18,9 km/h (3 Bft) 96,69 %
26.03.2021 19:00 13,0 C 12,2 C 9,6 C 62 % 1013,9 hPa 0,0 l/m 0,00 h 0,00 h 0 W/m 12,5 km/h (3 Bft) 98,51 %
26.03.2021 20:00 12,6 C 11,8 C 9,1 C 65 % 1013,5 hPa 0,0 l/m 0,00 h 0,00 h 0 W/m 10,5 km/h (2 Bft) 98,93 %
26.03.2021 21:00 11,6 C 10,6 C 8,1 C 69 % 1012,8 hPa 0,0 l/m 0,00 h 0,00 h 0 W/m 12,3 km/h (3 Bft) 92,87 %
26.03.2021 22:00 10,9 C 10,1 C 7,6 C 70 % 1012,1 hPa 0,0 l/m 0,00 h 0,00 h 0 W/m 14,7 km/h (3 Bft) 99,22 %
26.03.2021 23:00 10,8 C 10,1 C 7,6 C 72 % 1011,2 hPa 0,0 l/m 0,00 h 0,00 h 0 W/m 14,9 km/h (3 Bft) 98,56 %
27.03.2021 00:00 9,5 C 8,6 C 6,2 C 80 % 1012,2 hPa 0,0 l/m 0,00 h 0,17 h 0 W/m 24,5 km/h (4 Bft) 96,11 %
27.03.2021 01:00 7,2 C 6,5 C 4,1 C 89 % 1013,6 hPa 0,4 l/m 0,00 h 0,67 h 0 W/m 17,4 km/h (3 Bft) 97,22 %
27.03.2021 02:00 6,0 C 5,2 C 2,9 C 92 % 1014,2 hPa 0,4 l/m 0,00 h 0,87 h 0 W/m 17,2 km/h (3 Bft) 95,19 %
27.03.2021 03:00 5,6 C 5,0 C 2,9 C 93 % 1014,6 hPa 0,0 l/m 0,00 h 0,67 h 0 W/m 17,7 km/h (3 Bft) 97,83 %
27.03.2021 04:00 5,5 C 5,0 C 2,8 C 92 % 1015,3 hPa 0,0 l/m 0,00 h 0,00 h 0 W/m 19,5 km/h (3 Bft) 96,26 %
27.03.2021 05:00 5,4 C 4,8 C 2,8 C 90 % 1015,7 hPa 0,0 l/m 0,00 h 0,00 h 0 W/m 19,4 km/h (3 Bft) 98,08 %
27.03.2021 06:00 5,6 C 5,1 C 3,4 C 88 % 1016,3 hPa 0,0 l/m 0,10 h 0,00 h 20 W/m 24,7 km/h (4 Bft) 97,16 %
27.03.2021 07:00 5,9 C 5,6 C 3,7 C 88 % 1016,9 hPa 0,0 l/m 0,30 h 0,57 h 55 W/m 25,1 km/h (4 Bft) 90,90 %
27.03.2021 08:00 5,6 C 5,6 C 3,5 C 88 % 1017,9 hPa 0,2 l/m 0,20 h 0,37 h 114 W/m 26,3 km/h (4 Bft) 97,15 %
27.03.2021 09:00 6,6 C 8,3 C 6,8 C 84 % 1019,0 hPa 0,0 l/m 0,53 h 0,00 h 255 W/m 25,1 km/h (4 Bft) 98,45 %
27.03.2021 10:00 7,9 C 9,3 C 8,3 C 76 % 1019,8 hPa 0,0 l/m 0,53 h 0,00 h 378 W/m 24,1 km/h (4 Bft) 96,54 %
27.03.2021 11:00 8,6 C 9,6 C 8,2 C 71 % 1020,4 hPa 0,0 l/m 0,33 h 0,20 h 293 W/m 25,8 km/h (4 Bft) 95,24 %
27.03.2021 12:00 9,5 C 12,0 C 7,6 C 67 % 1021,3 hPa 0,6 l/m 0,83 h 0,17 h 567 W/m 26,3 km/h (4 Bft) 97,11 %
27.03.2021 13:00 10,9 C 14,9 C 7,9 C 60 % 1022,0 hPa 0,0 l/m 0,90 h 0,00 h 720 W/m 29,9 km/h (5 Bft) 98,93 %
27.03.2021 14:00 10,2 C 12,5 C 7,0 C 61 % 1023,0 hPa 0,0 l/m 0,47 h 0,27 h 392 W/m 25,8 km/h (4 Bft) 97,52 %
27.03.2021 15:00 10,6 C 13,6 C 7,8 C 56 % 1023,5 hPa 0,0 l/m 0,63 h 0,00 h 398 W/m 25,4 km/h (4 Bft) 93,40 %
27.03.2021 16:00 9,7 C 10,5 C 6,8 C 58 % 1024,1 hPa 0,0 l/m 0,30 h 0,00 h 152 W/m 18,3 km/h (3 Bft) 95,81 %
27.03.2021 17:00 9,9 C 11,8 C 7,0 C 56 % 1024,6 hPa 0,0 l/m 0,80 h 0,00 h 153 W/m 16,4 km/h (3 Bft) 98,44 %
27.03.2021 18:00 8,8 C 8,0 C 5,3 C 60 % 1025,5 hPa 0,0 l/m 0,07 h 0,00 h 23 W/m 11,3 km/h (2 Bft) 91,86 %
27.03.2021 19:00 7,3 C 6,2 C 3,7 C 64 % 1026,3 hPa 0,0 l/m 0,00 h 0,00 h 0 W/m 5,0 km/h (1 Bft) 99,50 %
27.03.2021 20:00 6,1 C 4,5 C 2,0 C 67 % 1026,7 hPa 0,0 l/m 0,00 h 0,00 h 0 W/m 0,6 km/h (0 Bft) 96,51 %
27.03.2021 21:00 5,0 C 3,1 C 0,8 C 72 % 1027,1 hPa 0,0 l/m 0,00 h 0,00 h 0 W/m 0,0 km/h (0 Bft) 98,01 %
27.03.2021 22:00 4,7 C 4,2 C 1,9 C 74 % 1027,6 hPa 0,0 l/m 0,00 h 0,00 h 0 W/m 4,9 km/h (1 Bft) 94,72 %
27.03.2021 23:00 5,0 C 4,4 C 2,3 C 74 % 1027,7 hPa 0,0 l/m 0,00 h 0,00 h 0 W/m 6,2 km/h (2 Bft) 98,07 %
28.03.2021 00:00 5,3 C 4,7 C 2,3 C 77 % 1027,8 hPa 0,0 l/m 0,00 h 0,00 h 0 W/m 9,5 km/h (2 Bft) 97,52 %
28.03.2021 01:00 5,5 C 4,8 C 2,6 C 79 % 1027,7 hPa 0,0 l/m 0,00 h 0,00 h 0 W/m 10,0 km/h (2 Bft) 97,65 %
28.03.2021 03:00 6,0 C 5,6 C 3,0 C 79 % 1027,3 hPa 0,0 l/m 0,00 h 0,00 h 0 W/m 13,3 km/h (3 Bft) 97,85 %
28.03.2021 04:00 5,9 C 5,0 C 2,8 C 81 % 1027,1 hPa 0,0 l/m 0,00 h 0,00 h 0 W/m 5,0 km/h (1 Bft) 96,92 %
28.03.2021 05:00 5,4 C 4,4 C 2,3 C 83 % 1027,0 hPa 0,0 l/m 0,00 h 0,00 h 0 W/m 6,7 km/h (2 Bft) 95,38 %
28.03.2021 06:00 5,2 C 4,5 C 2,4 C 84 % 1027,1 hPa 0,0 l/m 0,00 h 0,00 h 0 W/m 8,7 km/h (2 Bft) 98,23 %
28.03.2021 07:00 5,4 C 4,8 C 2,7 C 85 % 1027,1 hPa 0,0 l/m 0,00 h 0,00 h 10 W/m 9,4 km/h (2 Bft) 99,21 %
28.03.2021 08:00 6,2 C 6,1 C 3,7 C 85 % 1027,1 hPa 0,0 l/m 0,00 h 0,00 h 34 W/m 9,9 km/h (2 Bft) 92,80 %
28.03.2021 09:00 8,0 C 8,3 C 5,7 C 82 % 1027,1 hPa 0,0 l/m 0,20 h 0,00 h 127 W/m 14,1 km/h (3 Bft) 98,44 %
28.03.2021 10:00 10,9 C 13,3 C 11,1 C 74 % 1027,3 hPa 0,0 l/m 0,97 h 0,00 h 363 W/m 22,0 km/h (4 Bft) 98,57 %
28.03.2021 11:00 12,5 C 14,3 C 14,8 C 67 % 1027,3 hPa 0,0 l/m 1,00 h 0,00 h 544 W/m 32,7 km/h (5 Bft) 98,50 %
28.03.2021 12:00 13,6 C 16,0 C 16,7 C 62 % 1027,0 hPa 0,0 l/m 0,90 h 0,00 h 596 W/m 30,9 km/h (5 Bft) 95,48 %
28.03.2021 13:00 14,0 C 16,1 C 13,7 C 60 % 1027,0 hPa 0,0 l/m 1,00 h 0,00 h 573 W/m 33,2 km/h (5 Bft) 96,08 %
28.03.2021 14:00 14,3 C 15,6 C 12,5 C 56 % 1026,8 hPa 0,0 l/m 1,00 h 0,00 h 439 W/m 34,0 km/h (5 Bft) 99,65 %
28.03.2021 15:00 14,2 C 15,0 C 12,1 C 56 % 1026,5 hPa 0,0 l/m 1,00 h 0,00 h 331 W/m 25,5 km/h (4 Bft) 97,65 %
28.03.2021 16:00 14,0 C 13,9 C 11,3 C 57 % 1026,4 hPa 0,0 l/m 0,10 h 0,00 h 171 W/m 21,7 km/h (4 Bft) 95,99 %
28.03.2021 17:00 13,8 C 13,7 C 10,9 C 59 % 1026,4 hPa 0,0 l/m 0,00 h 0,00 h 134 W/m 19,6 km/h (3 Bft) 98,93 %
28.03.2021 18:00 13,8 C 13,5 C 10,5 C 61 % 1026,5 hPa 0,0 l/m 0,13 h 0,00 h 90 W/m 17,1 km/h (3 Bft) 98,16 %
28.03.2021 19:00 13,2 C 12,5 C 9,8 C 64 % 1026,5 hPa 0,0 l/m 0,00 h 0,00 h 22 W/m 15,9 km/h (3 Bft) 95,66 %
28.03.2021 20:00 12,6 C 11,8 C 9,1 C 67 % 1027,0 hPa 0,0 l/m 0,00 h 0,00 h 0 W/m 9,0 km/h (2 Bft) 99,07 %
28.03.2021 21:00 11,8 C 10,8 C 8,2 C 70 % 1027,3 hPa 0,0 l/m 0,00 h 0,00 h 0 W/m 6,0 km/h (2 Bft) 97,94 %
28.03.2021 22:00 11,1 C 9,9 C 7,5 C 71 % 1027,6 hPa 0,0 l/m 0,00 h 0,00 h 0 W/m 6,0 km/h (2 Bft) 96,05 %
28.03.2021 23:00 10,4 C 9,1 C 6,7 C 75 % 1027,9 hPa 0,0 l/m 0,00 h 0,00 h 0 W/m 5,5 km/h (1 Bft) 97,55 %
Min-Datum _ 24.03.21 24.03.21 24.03.21 24.03.21 26.03.21 - - - - 22.03.21 26.03.21
_ Min-Zeit 06:58 02:30 02:48 15:38 23:44 - - - - 01:42 00:02
Minimum _ 2,2 C 1,7 C 0,0 C 53 % 1011,0 hPa - - - - 0,0 km/h (0 Bft) 8,33 %
Max-Datum _ 24.03.21 25.03.21 24.03.21 26.03.21 28.03.21 27.03.21 23.03.21 27.03.21 27.03.21 28.03.21 22.03.21
_ Max-Zeit 15:36 13:30 11:50 08:04 23:54 12:32 12:08 00:16 13:10 13:22 00:34
Maximum _ 17,0 C 23,9 C 22,8 C 97 % 1028,1 hPa 0,6 l/m 0,07 h 0,03 h 926 W/m 54,7 km/h
S (7 Bft)
100,00 %
Durchschnitt _ 8,8 C 9,1 C 6,7 C 78 % 1022,6 hPa #1,6 l/m #40:54 h #3:56 h 258 W/m 11,3 km/h (2 Bft) 97,04 %
© 2021 W. Hausmann